Time;durP1;ratioP1;P1;durP2;ratioP2;P2;SDS_P1;SDS_P2;PMS_P1;PMS_P2;Temp;Humidity;BMP_temperature;BMP_pressure;BME280_temperature;BME280_humidity;BME280_pressure;Samples;Min_cycle;Max_cycle;Signal;HPM_P1;HPM_P2
2022/01/06 00:01:13;;;;;;;8.60;2.50;;;3.40;99.90;;;;;;1946693;74;21109;-73
2022/01/06 00:03:39;;;;;;;6.47;1.95;;;3.40;99.90;;;;;;1948454;73;21471;-74
2022/01/06 00:06:08;;;;;;;15.75;2.20;;;3.40;99.90;;;;;;1953551;73;21572;-73
2022/01/06 00:08:34;;;;;;;10.25;2.30;;;3.40;99.90;;;;;;1948510;72;21115;-74
2022/01/06 00:11:00;;;;;;;6.80;2.00;;;3.60;99.90;;;;;;1949906;73;21138;-74
2022/01/06 00:13:35;;;;;;;9.60;2.05;;;3.60;99.90;;;;;;1945711;73;21082;-73
2022/01/06 00:16:04;;;;;;;10.53;2.42;;;3.50;99.90;;;;;;1924092;73;21112;-74
2022/01/06 00:23:04;;;;;;;8.55;2.55;;;3.30;99.90;;;;;;1925832;73;21533;-74
2022/01/06 00:23:46;;;;;;;13.72;2.58;;;3.30;99.90;;;;;;1927457;73;21129;-73
2022/01/06 00:26:13;;;;;;;9.78;2.58;;;3.50;99.90;;;;;;1922691;73;21086;-73
2022/01/06 00:28:40;;;;;;;7.40;2.30;;;3.40;99.90;;;;;;1943123;73;21544;-73
2022/01/06 00:31:06;;;;;;;7.45;2.20;;;3.40;99.90;;;;;;1923391;73;21176;-73
2022/01/06 00:33:32;;;;;;;8.63;2.08;;;3.40;99.90;;;;;;1936335;73;21062;-73
2022/01/06 00:35:58;;;;;;;6.30;2.47;;;3.50;99.90;;;;;;1943974;73;21169;-72
2022/01/06 00:38:25;;;;;;;5.12;2.20;;;3.40;99.90;;;;;;1946572;74;21152;-72
2022/01/06 00:40:52;;;;;;;13.10;2.80;;;3.40;99.90;;;;;;1940888;72;21074;-74
2022/01/06 00:43:18;;;;;;;8.13;2.77;;;3.40;99.90;;;;;;1942563;73;21066;-74
2022/01/06 00:45:44;;;;;;;8.80;2.50;;;3.40;99.90;;;;;;1916705;73;21168;-72
2022/01/06 00:48:10;;;;;;;6.97;2.33;;;3.50;99.90;;;;;;1948609;72;21059;-73
2022/01/06 00:50:36;;;;;;;5.78;2.25;;;3.40;99.90;;;;;;1950425;72;21172;-73
2022/01/06 00:53:04;;;;;;;8.20;2.70;;;3.40;99.90;;;;;;1926498;73;21152;-73
2022/01/06 00:55:31;;;;;;;8.58;2.52;;;3.40;99.90;;;;;;1945986;73;21070;-73
2022/01/06 00:57:57;;;;;;;8.45;2.35;;;3.40;99.90;;;;;;1945442;73;21493;-72
2022/01/06 01:00:27;;;;;;;5.45;2.40;;;3.40;99.90;;;;;;1952331;73;21071;-74
2022/01/06 01:02:51;;;;;;;6.15;2.52;;;3.40;99.90;;;;;;1925608;73;21087;-73
2022/01/06 01:05:17;;;;;;;7.90;2.80;;;3.40;99.90;;;;;;1951250;73;21143;-73
2022/01/06 01:07:43;;;;;;;5.60;1.95;;;3.40;99.90;;;;;;1942877;73;21036;-73
2022/01/06 01:10:09;;;;;;;6.58;2.05;;;3.40;99.90;;;;;;1935195;73;21075;-73
2022/01/06 01:12:35;;;;;;;8.13;2.35;;;3.40;99.90;;;;;;1947626;73;21129;-73
2022/01/06 01:15:07;;;;;;;5.45;2.22;;;3.40;99.90;;;;;;1932268;72;21071;-73
2022/01/06 01:17:32;;;;;;;9.80;2.45;;;3.20;99.90;;;;;;1949430;73;21452;-73
2022/01/06 01:19:58;;;;;;;8.03;2.65;;;3.20;99.90;;;;;;1949165;73;21393;-74
2022/01/06 01:22:24;;;;;;;7.78;3.15;;;3.10;99.90;;;;;;1946515;72;21128;-74
2022/01/06 01:24:50;;;;;;;6.72;2.37;;;3.10;99.90;;;;;;1943192;73;21152;-73
2022/01/06 01:27:21;;;;;;;7.95;2.12;;;3.00;99.90;;;;;;1927194;72;21067;-73
2022/01/06 01:29:50;;;;;;;7.80;2.40;;;3.10;99.90;;;;;;1915979;73;21553;-73
2022/01/06 01:32:12;;;;;;;10.60;2.72;;;3.10;99.90;;;;;;1942576;73;21099;-74
2022/01/06 01:34:40;;;;;;;7.58;2.10;;;3.10;99.90;;;;;;1947873;73;21151;-72
2022/01/06 01:37:06;;;;;;;7.85;2.65;;;3.10;99.90;;;;;;1932679;73;21160;-74
2022/01/06 01:39:32;;;;;;;10.13;2.47;;;3.20;99.90;;;;;;1933076;73;21483;-73
2022/01/06 01:41:58;;;;;;;6.10;2.80;;;3.20;99.90;;;;;;1934141;73;21479;-72
2022/01/06 01:44:24;;;;;;;4.87;2.40;;;3.20;99.90;;;;;;1938016;73;21577;-73
2022/01/06 01:47:03;;;;;;;10.35;3.00;;;3.10;99.90;;;;;;1929251;73;21152;-73
2022/01/06 01:49:32;;;;;;;8.55;2.98;;;3.10;99.90;;;;;;1932616;73;21552;-74
2022/01/06 01:51:55;;;;;;;4.37;2.25;;;3.00;99.90;;;;;;1950242;73;21051;-72
2022/01/06 01:54:21;;;;;;;6.37;2.33;;;3.00;99.90;;;;;;1923967;73;21073;-71
2022/01/06 01:56:47;;;;;;;5.12;2.17;;;3.00;99.90;;;;;;1948722;73;21143;-71
2022/01/06 01:59:14;;;;;;;7.00;2.60;;;3.10;99.90;;;;;;1933690;73;21138;-71
2022/01/06 02:01:42;;;;;;;6.83;2.15;;;3.10;99.90;;;;;;1940485;73;21074;-71
2022/01/06 02:04:07;;;;;;;15.18;2.65;;;3.20;99.90;;;;;;1948183;73;21095;-72
2022/01/06 02:06:34;;;;;;;6.10;2.40;;;3.20;99.90;;;;;;1932339;73;21195;-71
2022/01/06 02:09:00;;;;;;;5.72;2.42;;;3.10;99.90;;;;;;1947245;73;21036;-72
2022/01/06 02:11:28;;;;;;;9.75;2.80;;;3.10;99.90;;;;;;1931929;73;21075;-71
2022/01/06 02:13:54;;;;;;;8.50;2.40;;;3.10;99.90;;;;;;1947498;73;21154;-71
2022/01/06 02:16:20;;;;;;;12.23;2.70;;;3.20;99.90;;;;;;1946696;74;21499;-72
2022/01/06 02:18:47;;;;;;;5.03;2.40;;;3.20;99.90;;;;;;1946505;73;21214;-72
2022/01/06 02:21:14;;;;;;;6.20;2.47;;;3.30;99.90;;;;;;1925007;73;21118;-73
2022/01/06 02:23:40;;;;;;;7.87;2.75;;;3.10;99.90;;;;;;1918225;73;21160;-72
2022/01/06 02:26:06;;;;;;;8.73;2.20;;;3.20;99.90;;;;;;1939468;73;21121;-71
2022/01/06 02:28:32;;;;;;;16.62;2.42;;;3.20;99.90;;;;;;1915949;73;21164;-72
2022/01/06 02:30:58;;;;;;;5.67;2.00;;;3.20;99.90;;;;;;1943768;73;21091;-72
2022/01/06 02:33:24;;;;;;;7.15;2.30;;;3.20;99.90;;;;;;1933214;73;21113;-72
2022/01/06 02:35:50;;;;;;;7.22;2.33;;;3.20;99.90;;;;;;1944803;73;21083;-72
2022/01/06 02:38:16;;;;;;;13.58;2.15;;;3.30;99.90;;;;;;1931361;73;21063;-71
2022/01/06 02:40:43;;;;;;;4.33;2.00;;;3.30;99.90;;;;;;1946224;73;21144;-71
2022/01/06 02:43:09;;;;;;;4.53;2.05;;;3.20;99.90;;;;;;1952211;73;21036;-71
2022/01/06 02:45:36;;;;;;;9.45;2.50;;;3.20;99.90;;;;;;1934579;73;21487;-71
2022/01/06 02:48:08;;;;;;;8.90;1.82;;;3.10;99.90;;;;;;1928135;73;21149;-72
2022/01/06 02:50:29;;;;;;;9.40;2.47;;;3.10;99.90;;;;;;1935958;73;21075;-72
2022/01/06 02:52:56;;;;;;;7.58;2.45;;;3.10;99.90;;;;;;1946453;74;21027;-72
2022/01/06 02:55:22;;;;;;;10.18;2.20;;;3.20;99.90;;;;;;1946528;73;21055;-71
2022/01/06 02:57:48;;;;;;;7.12;2.37;;;3.20;99.90;;;;;;1940636;73;21153;-72
2022/01/06 03:00:14;;;;;;;8.98;2.58;;;3.20;99.90;;;;;;1927452;73;21141;-72
2022/01/06 03:02:44;;;;;;;8.60;2.08;;;3.20;99.90;;;;;;1942735;73;21588;-71
2022/01/06 03:05:10;;;;;;;10.68;2.65;;;3.30;99.90;;;;;;1935179;73;21563;-72
2022/01/06 03:07:36;;;;;;;6.08;2.20;;;3.30;99.90;;;;;;1919818;73;21456;-71
2022/01/06 03:12:47;;;;;;;8.58;2.10;;;3.40;99.90;;;;;;1921292;74;21232;-72
2022/01/06 03:15:13;;;;;;;7.42;2.47;;;3.30;99.90;;;;;;1931234;73;21108;-72
2022/01/06 03:17:40;;;;;;;8.15;2.30;;;3.30;99.90;;;;;;1901278;75;21150;-72
2022/01/06 03:20:06;;;;;;;6.40;2.08;;;3.40;99.90;;;;;;1915424;74;21083;-71
2022/01/06 03:22:32;;;;;;;4.00;1.90;;;3.50;99.90;;;;;;1936478;74;21071;-72
2022/01/06 03:24:58;;;;;;;3.58;1.98;;;3.50;99.90;;;;;;1904759;75;21081;-72
2022/01/06 03:27:24;;;;;;;4.87;1.72;;;3.50;99.90;;;;;;1903263;75;21280;-72
2022/01/06 03:29:50;;;;;;;3.50;1.77;;;3.50;99.90;;;;;;1945916;73;21159;-72
2022/01/06 03:32:16;;;;;;;4.50;1.70;;;3.50;99.90;;;;;;1911506;75;21218;-72
2022/01/06 03:34:42;;;;;;;4.00;1.98;;;3.40;99.90;;;;;;1883497;76;21138;-72
2022/01/06 03:37:09;;;;;;;9.40;1.50;;;3.40;99.90;;;;;;1936328;74;21063;-72
2022/01/06 03:39:35;;;;;;;10.18;2.25;;;3.40;99.90;;;;;;1903015;75;21040;-72
2022/01/06 03:42:01;;;;;;;3.00;1.75;;;3.40;99.90;;;;;;1883603;76;21110;-72
2022/01/06 03:44:27;;;;;;;5.22;1.80;;;3.40;99.90;;;;;;1939786;73;21078;-72
2022/01/06 03:46:53;;;;;;;9.05;2.37;;;3.40;99.90;;;;;;1904514;75;21080;-72
2022/01/06 03:49:19;;;;;;;6.22;2.20;;;3.40;99.90;;;;;;1934779;73;21075;-71
2022/01/06 03:51:45;;;;;;;4.17;2.12;;;3.20;99.90;;;;;;1904380;75;21086;-71
2022/01/06 03:54:13;;;;;;;7.92;2.45;;;3.20;99.90;;;;;;1885647;75;21092;-72
2022/01/06 03:56:39;;;;;;;6.75;2.02;;;3.30;99.90;;;;;;1936266;74;21032;-71
2022/01/06 03:59:05;;;;;;;6.42;1.90;;;3.30;99.90;;;;;;1903086;75;21156;-71
2022/01/06 04:01:31;;;;;;;5.03;1.55;;;3.30;99.90;;;;;;1887348;75;21231;-71
2022/01/06 04:03:57;;;;;;;6.72;1.77;;;3.30;99.90;;;;;;1937954;73;21070;-71
2022/01/06 04:06:23;;;;;;;7.25;2.37;;;3.30;99.90;;;;;;1912735;74;21140;-72
2022/01/06 04:08:50;;;;;;;3.02;1.70;;;3.30;99.90;;;;;;1889045;75;21173;-72
2022/01/06 04:11:16;;;;;;;4.90;1.65;;;3.30;99.90;;;;;;1946293;73;21199;-72
2022/01/06 04:13:42;;;;;;;3.17;1.62;;;3.30;99.90;;;;;;1914760;74;21445;-71
2022/01/06 04:16:10;;;;;;;10.43;1.82;;;3.30;99.90;;;;;;1936354;74;21036;-72
2022/01/06 04:18:36;;;;;;;3.77;1.60;;;3.30;99.90;;;;;;1902964;75;21496;-71
2022/01/06 04:21:02;;;;;;;4.87;1.82;;;3.40;99.90;;;;;;1883558;76;21062;-71
2022/01/06 04:23:28;;;;;;;5.70;1.95;;;3.30;99.90;;;;;;1936315;73;21071;-73
2022/01/06 04:25:54;;;;;;;6.00;2.00;;;3.30;99.90;;;;;;1903402;75;21249;-72
2022/01/06 04:28:20;;;;;;;5.08;2.20;;;3.30;99.90;;;;;;1898737;75;21084;-71
2022/01/06 04:30:46;;;;;;;5.65;1.75;;;3.40;99.90;;;;;;1937953;73;21135;-72
2022/01/06 04:33:13;;;;;;;5.42;1.77;;;3.40;99.90;;;;;;1904895;75;21147;-73
2022/01/06 04:35:39;;;;;;;4.47;1.90;;;3.40;99.90;;;;;;1898721;75;21064;-72
2022/01/06 04:38:05;;;;;;;4.42;1.75;;;3.50;99.90;;;;;;1939698;74;21176;-73
2022/01/06 04:40:31;;;;;;;5.53;1.70;;;3.50;99.90;;;;;;1901827;75;21154;-72
2022/01/06 04:42:57;;;;;;;9.73;2.08;;;3.50;99.90;;;;;;1917626;74;21146;-71
2022/01/06 04:45:23;;;;;;;6.28;2.02;;;3.40;99.90;;;;;;1934908;73;21143;-71
2022/01/06 04:47:49;;;;;;;4.17;2.10;;;3.50;99.90;;;;;;1906533;75;21145;-71
2022/01/06 04:50:15;;;;;;;5.42;1.90;;;3.50;99.90;;;;;;1883753;75;21077;-73
2022/01/06 04:52:42;;;;;;;9.90;2.50;;;3.50;99.90;;;;;;1936584;73;21143;-72
2022/01/06 04:55:08;;;;;;;4.62;1.92;;;3.40;99.90;;;;;;1907942;74;21080;-71
2022/01/06 04:57:34;;;;;;;5.40;2.27;;;3.40;99.90;;;;;;1931121;73;21104;-72
2022/01/06 05:00:00;;;;;;;7.97;2.10;;;3.50;99.90;;;;;;1899756;75;21038;-72
2022/01/06 05:02:26;;;;;;;4.45;1.87;;;3.50;99.90;;;;;;1895382;75;21096;-72
2022/01/06 05:04:52;;;;;;;7.70;2.20;;;3.50;99.90;;;;;;1936447;73;21149;-72
2022/01/06 05:07:18;;;;;;;4.12;1.90;;;3.50;99.90;;;;;;1906233;74;21267;-72
2022/01/06 05:09:44;;;;;;;6.17;2.02;;;3.50;99.90;;;;;;1932307;74;21487;-72
2022/01/06 05:12:11;;;;;;;3.17;1.90;;;3.50;99.90;;;;;;1914285;74;21593;-72
2022/01/06 05:14:37;;;;;;;7.00;2.12;;;3.40;99.90;;;;;;1937279;73;21494;-72
2022/01/06 05:17:03;;;;;;;7.55;2.42;;;3.40;99.90;;;;;;1904734;74;21036;-72
2022/01/06 05:19:29;;;;;;;4.20;1.85;;;3.40;99.90;;;;;;1883614;76;21150;-72
2022/01/06 05:21:55;;;;;;;6.97;2.00;;;3.50;99.90;;;;;;1944033;73;21121;-72
2022/01/06 05:24:23;;;;;;;9.85;2.17;;;3.50;99.90;;;;;;1915295;75;21144;-74
2022/01/06 05:26:49;;;;;;;4.05;1.85;;;3.60;99.90;;;;;;1892103;75;21175;-74
2022/01/06 05:29:15;;;;;;;6.58;2.08;;;3.50;99.90;;;;;;1936608;74;21114;-74
2022/01/06 05:31:41;;;;;;;5.25;1.80;;;3.50;99.90;;;;;;1901605;75;21086;-73
2022/01/06 05:34:07;;;;;;;5.22;1.95;;;3.50;99.90;;;;;;1894192;75;21223;-74
2022/01/06 05:36:33;;;;;;;3.30;2.10;;;3.60;99.90;;;;;;1940249;73;21063;-72
2022/01/06 05:39:00;;;;;;;3.25;1.50;;;3.40;99.90;;;;;;1923473;74;21049;-73
2022/01/06 05:41:26;;;;;;;5.95;2.22;;;3.40;99.90;;;;;;1936457;74;21075;-71
2022/01/06 05:43:52;;;;;;;6.03;2.40;;;3.40;99.90;;;;;;1901434;75;21086;-71
2022/01/06 05:46:18;;;;;;;6.30;2.40;;;3.40;99.90;;;;;;1891410;75;21570;-72
2022/01/06 05:48:44;;;;;;;3.85;2.30;;;3.40;99.90;;;;;;1936108;73;21063;-72
2022/01/06 05:51:10;;;;;;;6.42;1.75;;;3.30;99.90;;;;;;1903259;75;21507;-74
2022/01/06 05:53:36;;;;;;;3.95;1.87;;;3.40;99.90;;;;;;1888206;75;21080;-73
2022/01/06 05:56:02;;;;;;;6.33;2.17;;;3.50;99.90;;;;;;1936414;73;21230;-71
2022/01/06 05:58:29;;;;;;;6.50;1.87;;;3.50;99.90;;;;;;1901546;75;21042;-72
2022/01/06 06:00:55;;;;;;;5.67;2.30;;;3.40;99.90;;;;;;1885552;75;21182;-73
2022/01/06 06:03:22;;;;;;;3.60;2.17;;;3.50;99.90;;;;;;1939284;73;21075;-73
2022/01/06 06:05:48;;;;;;;3.22;2.10;;;3.60;99.90;;;;;;1901797;75;21140;-73
2022/01/06 06:08:14;;;;;;;5.80;2.35;;;3.60;99.90;;;;;;1912612;74;21088;-72
2022/01/06 06:10:41;;;;;;;6.05;2.75;;;3.60;99.90;;;;;;1935112;73;21067;-71
2022/01/06 06:13:07;;;;;;;4.72;2.00;;;3.50;99.90;;;;;;1915225;75;21084;-72
2022/01/06 06:15:35;;;;;;;4.47;2.10;;;3.70;99.90;;;;;;1932888;73;21064;-73
2022/01/06 06:18:01;;;;;;;4.97;2.12;;;3.70;99.90;;;;;;1900963;75;21212;-74
2022/01/06 06:20:27;;;;;;;8.28;2.10;;;3.70;99.90;;;;;;1894617;75;21065;-73
2022/01/06 06:22:53;;;;;;;4.08;1.90;;;3.70;99.90;;;;;;1937152;73;21257;-72
2022/01/06 06:25:19;;;;;;;6.97;2.40;;;3.60;99.90;;;;;;1910862;74;21084;-73
2022/01/06 06:27:45;;;;;;;4.20;2.20;;;3.60;99.90;;;;;;1931605;74;21118;-73
2022/01/06 06:30:11;;;;;;;3.50;2.20;;;3.60;99.90;;;;;;1913752;74;21159;-73
2022/01/06 06:32:37;;;;;;;3.65;2.35;;;3.60;99.90;;;;;;1936785;73;21086;-72
2022/01/06 06:35:05;;;;;;;4.17;2.27;;;3.60;99.90;;;;;;1915667;75;21568;-72
2022/01/06 06:37:31;;;;;;;6.60;2.55;;;3.50;99.90;;;;;;1885959;75;21125;-72
2022/01/06 06:39:59;;;;;;;3.80;2.20;;;3.50;99.90;;;;;;1936167;73;21160;-73
2022/01/06 06:42:25;;;;;;;6.58;2.62;;;3.60;99.90;;;;;;1939807;72;21108;-73
2022/01/06 06:44:51;;;;;;;7.03;2.60;;;3.60;99.90;;;;;;1932715;73;21278;-73
2022/01/06 06:47:17;;;;;;;6.33;2.15;;;3.60;99.90;;;;;;1908783;75;21228;-73
2022/01/06 06:49:44;;;;;;;4.17;2.40;;;3.60;99.90;;;;;;1935212;73;21075;-72
2022/01/06 06:52:10;;;;;;;4.62;2.40;;;3.60;99.90;;;;;;1908682;75;21094;-73
2022/01/06 06:54:36;;;;;;;3.90;2.17;;;3.60;99.90;;;;;;1886237;75;21225;-73
2022/01/06 06:57:02;;;;;;;5.35;1.92;;;3.50;99.90;;;;;;1940000;73;21509;-74
2022/01/06 06:59:28;;;;;;;2.85;1.80;;;3.60;99.90;;;;;;1917124;74;21481;-72
2022/01/06 07:01:54;;;;;;;3.65;2.15;;;3.60;99.90;;;;;;1940126;73;21612;-73
2022/01/06 07:04:20;;;;;;;2.87;1.95;;;3.70;99.90;;;;;;1907644;75;21095;-73
2022/01/06 07:06:46;;;;;;;7.87;2.12;;;3.70;99.90;;;;;;1897644;75;21150;-73
2022/01/06 07:09:13;;;;;;;7.28;2.12;;;3.60;99.90;;;;;;1936166;73;21140;-72
2022/01/06 07:11:39;;;;;;;4.10;1.95;;;3.50;99.90;;;;;;1915222;74;21084;-73
2022/01/06 07:14:05;;;;;;;6.83;2.30;;;3.60;99.90;;;;;;1936261;74;21621;-71
2022/01/06 07:16:31;;;;;;;3.00;2.08;;;3.60;99.90;;;;;;1902033;75;21069;-73
2022/01/06 07:18:57;;;;;;;2.60;1.92;;;3.60;99.90;;;;;;1904699;75;21152;-72
2022/01/06 07:21:23;;;;;;;4.87;2.08;;;3.60;99.90;;;;;;1881202;75;21162;-73
2022/01/06 07:23:49;;;;;;;4.25;2.12;;;3.60;99.90;;;;;;1934821;73;21065;-73
2022/01/06 07:26:15;;;;;;;4.60;2.10;;;3.60;99.90;;;;;;1903496;75;21047;-73
2022/01/06 07:28:42;;;;;;;4.95;2.42;;;3.60;99.90;;;;;;1884236;75;21069;-73
2022/01/06 07:31:08;;;;;;;6.17;2.12;;;3.50;99.90;;;;;;1940296;73;21074;-72
2022/01/06 07:33:34;;;;;;;6.20;2.37;;;3.60;99.90;;;;;;1910910;75;21075;-71
2022/01/06 07:36:00;;;;;;;5.15;2.22;;;3.60;99.90;;;;;;1886757;75;21099;-74
2022/01/06 07:38:26;;;;;;;4.83;1.87;;;3.70;99.90;;;;;;1936868;74;21075;-73
2022/01/06 07:40:52;;;;;;;4.83;2.45;;;3.80;99.90;;;;;;1903342;75;21078;-72
2022/01/06 07:43:18;;;;;;;6.22;1.98;;;3.80;99.90;;;;;;1895450;75;21465;-72
2022/01/06 07:45:45;;;;;;;5.75;2.25;;;3.70;99.90;;;;;;1939333;73;21552;-72
2022/01/06 07:48:26;;;;;;;3.25;2.08;;;3.70;99.90;;;;;;1903283;75;21082;-72
2022/01/06 07:50:45;;;;;;;4.33;2.25;;;3.60;99.90;;;;;;1888171;75;21194;-73
2022/01/06 07:53:11;;;;;;;4.67;2.40;;;3.50;99.90;;;;;;1938535;73;21156;-73
2022/01/06 07:55:37;;;;;;;6.87;2.35;;;3.50;99.90;;;;;;1915504;74;21084;-75
2022/01/06 07:58:03;;;;;;;4.12;2.00;;;3.50;99.90;;;;;;1937499;73;21086;-74
2022/01/06 08:00:29;;;;;;;4.60;2.33;;;3.60;99.90;;;;;;1903506;75;21520;-75
2022/01/06 08:02:55;;;;;;;7.40;2.50;;;3.60;99.90;;;;;;1883711;75;21496;-76
2022/01/06 08:05:24;;;;;;;7.87;2.60;;;3.60;99.90;;;;;;1936511;73;21533;-74
2022/01/06 08:07:49;;;;;;;4.40;2.30;;;3.60;99.90;;;;;;1907417;74;21097;-75
2022/01/06 08:10:15;;;;;;;4.50;2.08;;;3.40;99.90;;;;;;1934008;73;21156;-75
2022/01/06 08:12:41;;;;;;;7.65;2.60;;;3.40;99.90;;;;;;1903312;75;21447;-75
2022/01/06 08:15:08;;;;;;;10.88;2.05;;;3.30;99.90;;;;;;1883712;76;21484;-75
2022/01/06 08:17:34;;;;;;;3.55;1.80;;;3.30;99.90;;;;;;1935522;73;21490;-75
2022/01/06 08:20:00;;;;;;;2.80;2.05;;;3.30;99.90;;;;;;1906668;75;21160;-76
2022/01/06 08:22:26;;;;;;;6.17;2.37;;;3.10;99.90;;;;;;1892918;75;21089;-75
2022/01/06 08:24:52;;;;;;;11.45;2.72;;;3.20;99.90;;;;;;1939150;73;21156;-75
2022/01/06 08:27:18;;;;;;;4.28;2.08;;;3.20;99.90;;;;;;1923071;74;21143;-74
2022/01/06 08:29:44;;;;;;;3.98;2.10;;;3.30;99.90;;;;;;1935278;73;21156;-74
2022/01/06 08:32:11;;;;;;;3.95;2.00;;;3.30;99.90;;;;;;1908309;75;21082;-75
2022/01/06 08:34:37;;;;;;;6.75;2.00;;;3.20;99.90;;;;;;1916823;74;21259;-75
2022/01/06 08:37:03;;;;;;;3.70;2.17;;;3.20;99.90;;;;;;1931095;73;21540;-75
2022/01/06 08:39:29;;;;;;;4.78;1.67;;;3.30;99.90;;;;;;1919191;74;21080;-75
2022/01/06 08:41:55;;;;;;;8.50;2.00;;;3.30;99.90;;;;;;1936157;73;21068;-73
2022/01/06 08:44:21;;;;;;;3.08;1.70;;;3.40;99.90;;;;;;1916905;74;21037;-76
2022/01/06 08:46:47;;;;;;;6.33;2.17;;;3.50;99.90;;;;;;1936514;73;21132;-75
2022/01/06 08:49:14;;;;;;;4.25;1.90;;;3.60;99.90;;;;;;1907233;75;21044;-75
2022/01/06 08:51:40;;;;;;;6.90;2.50;;;3.60;99.90;;;;;;1888116;74;21500;-77
2022/01/06 08:54:06;;;;;;;3.83;1.72;;;3.60;99.90;;;;;;1934658;73;21130;-78
2022/01/06 08:56:34;;;;;;;4.58;2.27;;;3.80;99.90;;;;;;1915158;74;21156;-79
2022/01/06 08:59:00;;;;;;;4.55;2.62;;;3.70;99.90;;;;;;1942400;73;21082;-79
2022/01/06 09:01:28;;;;;;;5.75;3.05;;;3.80;99.90;;;;;;1906091;75;21074;-79
2022/01/06 09:03:54;;;;;;;3.08;2.25;;;4.00;99.90;;;;;;1888162;75;21214;-79
2022/01/06 09:06:20;;;;;;;5.08;2.30;;;4.10;99.90;;;;;;1936837;73;21067;-78
2022/01/06 09:08:46;;;;;;;3.95;2.40;;;4.30;99.90;;;;;;1903428;75;21072;-79
2022/01/06 09:11:12;;;;;;;4.75;2.42;;;4.50;99.90;;;;;;1887338;75;21088;-79
2022/01/06 09:13:38;;;;;;;5.95;2.70;;;4.80;99.90;;;;;;1938350;73;21075;-79
2022/01/06 09:16:08;;;;;;;2.22;2.00;;;5.20;99.90;;;;;;1904604;75;21086;-80
2022/01/06 09:18:32;;;;;;;5.95;2.45;;;5.60;99.90;;;;;;1904312;74;21179;-79
2022/01/06 09:20:58;;;;;;;3.42;2.47;;;5.80;99.90;;;;;;1937901;73;21073;-77
2022/01/06 09:23:26;;;;;;;10.35;2.90;;;6.10;99.90;;;;;;1917174;74;21114;-78
2022/01/06 09:25:52;;;;;;;4.42;2.02;;;5.90;99.90;;;;;;1934717;73;21070;-79
2022/01/06 09:28:18;;;;;;;4.70;2.40;;;6.10;99.90;;;;;;1913039;75;21151;-79
2022/01/06 09:30:44;;;;;;;8.48;2.22;;;6.30;99.90;;;;;;1899617;75;21091;-80
2022/01/06 09:33:10;;;;;;;4.28;2.20;;;6.10;99.90;;;;;;1937873;73;21043;-79
2022/01/06 09:35:36;;;;;;;7.00;2.50;;;6.20;99.90;;;;;;1904299;75;21222;-79
2022/01/06 09:38:03;;;;;;;6.95;2.47;;;6.10;99.90;;;;;;1888587;75;21584;-78
2022/01/06 09:40:29;;;;;;;7.80;2.10;;;6.10;99.90;;;;;;1935489;73;21087;-79
2022/01/06 09:45:41;;;;;;;5.28;2.40;;;6.00;99.90;;;;;;1863221;76;21179;-78
2022/01/06 09:48:08;;;;;;;14.90;2.72;;;5.70;99.90;;;;;;1856066;77;21049;-80
2022/01/06 09:50:35;;;;;;;6.50;2.27;;;5.80;99.90;;;;;;1853285;77;21106;-78
2022/01/06 09:53:01;;;;;;;7.08;2.80;;;6.20;99.90;;;;;;1859512;77;21502;-78
2022/01/06 09:55:27;;;;;;;8.13;2.30;;;6.40;99.90;;;;;;1844286;77;21659;-79
2022/01/06 09:57:53;;;;;;;5.22;1.70;;;6.80;99.90;;;;;;1853335;77;21069;-78
2022/01/06 10:00:19;;;;;;;9.38;2.42;;;7.10;99.90;;;;;;1858294;77;21089;-78
2022/01/06 10:02:45;;;;;;;7.05;2.22;;;6.70;99.90;;;;;;1855879;77;21054;-77
2022/01/06 10:05:12;;;;;;;12.98;2.08;;;6.90;99.90;;;;;;1851466;77;21081;-79
2022/01/06 10:07:38;;;;;;;15.83;2.70;;;7.10;99.90;;;;;;1855462;77;21117;-78
2022/01/06 10:10:04;;;;;;;10.90;2.30;;;7.20;99.90;;;;;;1853684;77;21164;-77
2022/01/06 10:12:30;;;;;;;8.38;1.87;;;7.50;99.90;;;;;;1857719;77;21062;-78
2022/01/06 10:14:56;;;;;;;3.65;1.85;;;8.00;99.90;;;;;;1854417;77;21162;-75
2022/01/06 10:17:22;;;;;;;9.88;2.52;;;7.90;99.90;;;;;;1852598;77;21089;-75
2022/01/06 10:19:48;;;;;;;6.80;2.25;;;7.70;99.90;;;;;;1857381;77;21478;-78
2022/01/06 10:22:16;;;;;;;7.12;2.47;;;7.70;99.90;;;;;;1859276;77;21568;-76
2022/01/06 10:24:48;;;;;;;9.53;2.42;;;7.50;99.90;;;;;;1852778;76;21086;-75
2022/01/06 10:27:11;;;;;;;7.58;2.40;;;7.10;99.90;;;;;;1854647;76;21066;-74
2022/01/06 10:29:37;;;;;;;6.97;2.30;;;6.70;99.90;;;;;;1855362;77;21212;-75
2022/01/06 10:32:03;;;;;;;8.28;2.60;;;6.40;99.90;;;;;;1835931;78;21106;-75
2022/01/06 10:34:30;;;;;;;8.43;2.52;;;6.20;99.90;;;;;;1870849;75;21265;-75
2022/01/06 10:36:56;;;;;;;6.55;2.17;;;6.10;99.90;;;;;;1879407;76;21514;-80
2022/01/06 10:39:22;;;;;;;7.90;2.37;;;5.90;99.90;;;;;;1875807;76;21611;-82
2022/01/06 10:41:48;;;;;;;6.35;2.17;;;5.80;99.90;;;;;;1876972;76;21070;-79
2022/01/06 10:44:16;;;;;;;19.48;2.55;;;5.80;99.90;;;;;;1863634;76;21086;-82
2022/01/06 10:46:42;;;;;;;23.57;2.35;;;5.70;99.90;;;;;;1865648;76;21068;-84
2022/01/06 10:49:08;;;;;;;10.03;2.47;;;5.50;99.90;;;;;;1881813;74;21516;-79
2022/01/06 10:51:34;;;;;;;5.97;2.22;;;5.30;99.90;;;;;;1854563;76;21544;-83
2022/01/06 10:54:01;;;;;;;5.92;2.47;;;5.20;99.90;;;;;;1884458;75;21221;-87
2022/01/06 10:56:28;;;;;;;8.73;2.22;;;5.20;99.90;;;;;;1865989;75;21086;-83
2022/01/06 10:58:54;;;;;;;9.73;2.55;;;5.20;99.90;;;;;;1877409;76;21086;-81
2022/01/06 11:01:20;;;;;;;10.63;2.45;;;5.20;99.90;;;;;;1871888;76;21148;-85
2022/01/06 11:03:46;;;;;;;5.95;2.10;;;5.20;99.90;;;;;;1877789;76;21055;-85
2022/01/06 11:14:17;;;;;;;9.93;2.45;;;5.30;99.90;;;;;;1880756;75;21142;-82
2022/01/06 11:16:43;;;;;;;5.03;2.47;;;5.20;99.90;;;;;;1868500;76;21098;-79
2022/01/06 11:19:11;;;;;;;13.90;2.58;;;5.20;99.90;;;;;;1869925;76;21184;-80
2022/01/06 11:21:42;;;;;;;7.55;2.20;;;5.40;99.90;;;;;;1868393;76;21212;-79
2022/01/06 11:24:05;;;;;;;9.25;2.55;;;5.60;99.90;;;;;;1864527;75;21093;-77
2022/01/06 11:26:31;;;;;;;7.17;2.08;;;6.50;99.90;;;;;;1868629;76;21243;-79
2022/01/06 11:28:59;;;;;;;10.23;2.92;;;7.60;99.90;;;;;;1866483;76;21093;-80
2022/01/06 11:31:25;;;;;;;9.95;2.87;;;8.20;99.90;;;;;;1857881;76;21147;-78
2022/01/06 11:33:51;;;;;;;18.92;2.47;;;8.70;99.90;;;;;;1866459;76;21156;-82
2022/01/06 11:36:17;;;;;;;14.23;2.00;;;9.20;99.90;;;;;;1870521;76;21459;-78
2022/01/06 11:38:43;;;;;;;9.23;2.67;;;9.40;99.90;;;;;;1868339;76;21261;-78
2022/01/06 11:41:09;;;;;;;12.75;2.58;;;9.70;99.90;;;;;;1864324;76;21093;-79
2022/01/06 11:43:36;;;;;;;12.47;2.27;;;9.50;99.90;;;;;;1869342;76;21089;-78
2022/01/06 11:46:02;;;;;;;10.10;2.50;;;8.80;99.90;;;;;;1858897;76;21090;-80
2022/01/06 11:48:30;;;;;;;12.78;2.15;;;8.80;99.90;;;;;;1857918;76;21117;-79
2022/01/06 11:50:56;;;;;;;8.95;2.02;;;9.30;99.90;;;;;;1865878;75;21483;-79
2022/01/06 11:53:23;;;;;;;8.20;2.10;;;9.50;99.90;;;;;;1874708;76;21435;-80
2022/01/06 11:55:50;;;;;;;11.12;2.33;;;10.00;99.90;;;;;;1867009;75;21074;-76
2022/01/06 11:58:17;;;;;;;8.58;1.90;;;10.30;99.90;;;;;;1874971;76;21086;-75
2022/01/06 12:00:44;;;;;;;10.15;2.65;;;9.80;99.90;;;;;;1853927;76;21163;-76
2022/01/06 12:03:10;;;;;;;7.62;2.12;;;9.30;99.90;;;;;;1861518;75;21555;-75
2022/01/06 12:05:36;;;;;;;9.10;2.08;;;9.00;99.90;;;;;;1873974;76;21235;-79
2022/01/06 12:08:02;;;;;;;8.03;2.08;;;9.40;99.90;;;;;;1875782;76;21082;-78
2022/01/06 12:10:28;;;;;;;6.30;1.95;;;8.90;99.90;;;;;;1874411;76;21058;-77
2022/01/06 12:12:55;;;;;;;10.15;2.37;;;8.80;99.90;;;;;;1877080;76;21148;-77
2022/01/06 12:15:21;;;;;;;17.42;2.20;;;9.00;99.90;;;;;;1870495;76;21086;-75
2022/01/06 12:17:47;;;;;;;18.70;2.55;;;8.90;99.90;;;;;;1869390;76;21204;-77
2022/01/06 12:20:13;;;;;;;7.45;2.10;;;8.70;99.90;;;;;;1873884;76;21499;-77
2022/01/06 12:22:39;;;;;;;12.23;2.95;;;8.40;99.90;;;;;;1869228;76;21437;-75
2022/01/06 12:25:08;;;;;;;9.65;1.92;;;8.60;99.90;;;;;;1857885;76;21077;-75
2022/01/06 12:27:36;;;;;;;10.10;2.33;;;8.80;99.90;;;;;;1857986;76;21155;-75
2022/01/06 12:30:03;;;;;;;11.25;2.60;;;9.30;99.90;;;;;;1855926;76;21139;-74
2022/01/06 12:32:29;;;;;;;7.78;2.15;;;10.10;99.90;;;;;;1863403;76;21128;-73
2022/01/06 12:34:56;;;;;;;4.87;1.70;;;10.30;99.90;;;;;;1871448;76;21055;-75
2022/01/06 12:37:22;;;;;;;7.35;2.17;;;10.40;99.90;;;;;;1886479;74;21442;-74
2022/01/06 12:39:48;;;;;;;3.47;1.62;;;10.20;99.90;;;;;;1851709;77;21133;-74
2022/01/06 12:42:14;;;;;;;6.47;1.95;;;10.20;99.90;;;;;;1858426;76;21242;-76
2022/01/06 12:44:40;;;;;;;5.97;1.87;;;10.30;99.90;;;;;;1867853;75;21211;-77
2022/01/06 12:47:07;;;;;;;9.13;1.87;;;10.00;99.90;;;;;;1867888;74;21055;-76
2022/01/06 12:49:34;;;;;;;10.50;2.05;;;9.80;99.90;;;;;;1865090;75;21555;-75
2022/01/06 12:52:01;;;;;;;10.78;2.95;;;9.90;99.90;;;;;;1877282;76;21564;-77
2022/01/06 12:54:30;;;;;;;8.55;2.25;;;9.60;99.90;;;;;;1857500;76;21137;-76
2022/01/06 12:56:55;;;;;;;9.35;2.50;;;9.20;99.90;;;;;;1861462;76;21151;-76
2022/01/06 12:59:24;;;;;;;6.58;2.10;;;9.30;99.90;;;;;;1857955;76;21143;-75
2022/01/06 13:01:49;;;;;;;10.88;2.30;;;9.50;99.90;;;;;;1860580;76;21101;-76
2022/01/06 13:04:19;;;;;;;7.53;2.10;;;9.80;99.90;;;;;;1877326;76;21055;-75
2022/01/06 13:06:43;;;;;;;7.80;2.08;;;9.20;99.90;;;;;;1866470;75;21473;-75